createdAt,value
2022-12-27T00:02:17.701Z,1.40
2022-12-27T00:05:19.908Z,1.02
2022-12-27T00:08:22.746Z,1.00
2022-12-27T00:11:27.729Z,1.15
2022-12-27T00:14:30.015Z,1.02
2022-12-27T00:17:31.988Z,1.13
2022-12-27T00:20:34.578Z,0.88
2022-12-27T00:23:39.575Z,1.20
2022-12-27T00:26:42.088Z,1.00
2022-12-27T00:29:44.967Z,1.17
2022-12-27T00:32:47.418Z,1.00
2022-12-27T00:35:49.775Z,1.20
2022-12-27T00:38:53.763Z,1.20
2022-12-27T00:41:56.087Z,0.93
2022-12-27T00:44:58.617Z,1.30
2022-12-27T00:48:00.928Z,1.67
2022-12-27T00:51:08.597Z,1.10
2022-12-27T00:54:11.158Z,1.15
2022-12-27T00:57:14.349Z,1.10
2022-12-27T01:00:16.928Z,0.90
2022-12-27T01:03:20.813Z,1.30
2022-12-27T01:06:26.888Z,0.98
2022-12-27T01:09:29.190Z,0.70
2022-12-27T01:12:31.346Z,1.17
2022-12-27T01:15:33.695Z,1.10
2022-12-27T01:18:37.852Z,1.08
2022-12-27T01:21:41.224Z,1.15
2022-12-27T01:24:43.440Z,1.08
2022-12-27T01:27:45.745Z,1.58
2022-12-27T01:30:48.048Z,1.08
2022-12-27T01:33:55.867Z,1.10
2022-12-27T01:36:58.257Z,1.10
2022-12-27T01:40:01.110Z,0.90
2022-12-27T01:43:05.168Z,0.70
2022-12-27T01:46:07.993Z,0.88
2022-12-27T01:49:12.071Z,1.00
2022-12-27T01:52:14.827Z,0.90
2022-12-27T01:55:35.930Z,0.95
2022-12-27T01:58:46.852Z,1.10
2022-12-27T02:01:50.882Z,0.85
2022-12-27T02:04:55.213Z,0.90
2022-12-27T02:08:16.287Z,0.77
2022-12-27T02:11:43.650Z,1.35
2022-12-27T02:14:49.828Z,0.95
2022-12-27T02:17:52.392Z,1.15
2022-12-27T02:21:19.034Z,0.90
2022-12-27T02:24:42.020Z,1.20
2022-12-27T02:28:14.709Z,1.10
2022-12-27T02:31:57.578Z,0.90
2022-12-27T02:34:59.962Z,1.05
2022-12-27T02:38:12.578Z,1.10
2022-12-27T02:41:34.838Z,0.98
2022-12-27T02:44:55.803Z,1.05
2022-12-27T02:48:18.115Z,1.20
2022-12-27T02:51:50.406Z,0.90
2022-12-27T02:54:58.691Z,0.90
2022-12-27T02:58:25.407Z,1.08
2022-12-27T03:01:52.366Z,0.93
2022-12-27T03:05:24.772Z,0.75
2022-12-27T03:08:35.157Z,0.68
2022-12-27T03:12:06.815Z,0.80
2022-12-27T03:15:56.817Z,0.90
2022-12-27T03:19:03.021Z,1.05
2022-12-27T03:22:25.453Z,0.80
2022-12-27T03:25:29.735Z,0.95
2022-12-27T03:28:53.408Z,1.20
2022-12-27T03:32:18.583Z,1.00
2022-12-27T03:35:23.201Z,1.27
2022-12-27T03:38:27.619Z,1.00
2022-12-27T03:42:02.945Z,0.95
2022-12-27T03:45:06.303Z,1.20
2022-12-27T03:48:12.547Z,0.95
2022-12-27T03:51:17.501Z,1.00
2022-12-27T03:57:30.442Z,1.15
2022-12-27T04:00:32.487Z,1.42
2022-12-27T04:03:35.242Z,0.75
2022-12-27T04:06:37.433Z,1.05
2022-12-27T04:09:58.642Z,1.40
2022-12-27T04:13:19.556Z,1.13
2022-12-27T04:16:40.417Z,1.13
2022-12-27T04:20:01.261Z,1.40
2022-12-27T04:23:22.844Z,1.02
2022-12-27T04:26:43.689Z,1.23
2022-12-27T04:30:04.821Z,1.40
2022-12-27T04:33:25.581Z,0.73
2022-12-27T04:36:27.914Z,0.82
2022-12-27T04:39:29.877Z,0.82
2022-12-27T04:42:51.871Z,1.27
2022-12-27T04:46:12.925Z,1.42
2022-12-27T04:49:41.434Z,1.13
2022-12-27T04:53:19.819Z,1.17
2022-12-27T04:56:22.295Z,1.00
2022-12-27T04:59:42.974Z,0.98
2022-12-27T05:02:45.546Z,1.05
2022-12-27T05:05:51.051Z,1.50
2022-12-27T05:09:12.657Z,1.10
2022-12-27T05:12:33.432Z,1.65
2022-12-27T05:15:36.254Z,1.42
2022-12-27T05:18:38.212Z,1.02
2022-12-27T05:22:01.422Z,0.80
2022-12-27T05:25:22.599Z,1.33
2022-12-27T05:28:25.094Z,1.30
2022-12-27T05:31:28.821Z,1.15
2022-12-27T05:34:31.339Z,1.13
2022-12-27T05:37:33.429Z,1.10
2022-12-27T05:40:36.253Z,1.00
2022-12-27T05:43:39.146Z,0.80
2022-12-27T05:46:41.604Z,1.17
2022-12-27T05:49:43.716Z,1.02
2022-12-27T05:52:46.294Z,1.15
2022-12-27T05:55:55.944Z,1.15
2022-12-27T05:58:58.590Z,1.05
2022-12-27T06:02:01.487Z,1.13
2022-12-27T06:05:04.318Z,1.10
2022-12-27T06:08:06.384Z,1.30
2022-12-27T06:11:15.282Z,1.08
2022-12-27T06:14:17.603Z,1.02
2022-12-27T06:17:20.475Z,0.90
2022-12-27T06:20:23.186Z,0.90
2022-12-27T06:23:25.665Z,1.33
2022-12-27T06:26:30.136Z,0.90
2022-12-27T06:29:34.340Z,1.00
2022-12-27T06:32:36.620Z,1.10
2022-12-27T06:35:39.160Z,1.08
2022-12-27T06:38:41.580Z,1.00
2022-12-27T06:41:44.755Z,0.98
2022-12-27T06:44:47.011Z,0.70
2022-12-27T06:47:49.430Z,1.13
2022-12-27T06:50:52.505Z,1.20
2022-12-27T06:53:54.779Z,0.77
2022-12-27T06:56:56.992Z,0.88
2022-12-27T06:59:59.692Z,0.82
2022-12-27T07:03:04.214Z,1.20
2022-12-27T07:06:08.653Z,1.10
2022-12-27T07:09:10.655Z,1.58
2022-12-27T07:12:13.394Z,0.85
2022-12-27T07:15:15.644Z,1.02
2022-12-27T07:18:17.907Z,1.10
2022-12-27T07:21:23.159Z,0.88
2022-12-27T07:24:25.565Z,1.23
2022-12-27T07:27:27.845Z,0.73
2022-12-27T07:30:30.426Z,1.10
2022-12-27T07:33:32.442Z,0.85
2022-12-27T07:36:38.489Z,1.15
2022-12-27T07:39:40.789Z,0.90
2022-12-27T07:42:43.325Z,0.80
2022-12-27T07:45:45.305Z,0.88
2022-12-27T07:48:48.063Z,1.10
2022-12-27T07:51:50.970Z,1.20
2022-12-27T07:54:53.532Z,0.80
2022-12-27T07:57:55.637Z,0.65
2022-12-27T08:00:58.205Z,0.85
2022-12-27T08:04:00.662Z,0.95
2022-12-27T08:07:08.240Z,1.00
2022-12-27T08:10:10.597Z,0.88
2022-12-27T08:13:13.136Z,0.80
2022-12-27T08:16:19.266Z,0.90
2022-12-27T08:19:21.964Z,0.70
2022-12-27T08:22:24.849Z,0.80
2022-12-27T08:25:28.714Z,1.00
2022-12-27T08:28:31.942Z,0.80
2022-12-27T08:31:34.670Z,0.98
2022-12-27T08:34:36.754Z,0.95
2022-12-27T08:37:39.242Z,0.90
2022-12-27T08:40:43.332Z,1.10
2022-12-27T08:43:46.788Z,0.90
2022-12-27T08:46:48.904Z,0.88
2022-12-27T08:49:51.589Z,0.68
2022-12-27T08:52:57.938Z,0.82
2022-12-27T08:56:00.691Z,1.50
2022-12-27T08:59:02.949Z,0.80
2022-12-27T09:02:05.606Z,0.80
2022-12-27T09:05:08.714Z,0.90
2022-12-27T09:08:12.639Z,1.33
2022-12-27T09:11:21.505Z,0.77
2022-12-27T09:14:24.590Z,1.20
2022-12-27T09:17:26.625Z,0.80
2022-12-27T09:20:29.018Z,0.93
2022-12-27T09:23:31.333Z,1.00
2022-12-27T09:26:33.915Z,1.13
2022-12-27T09:29:36.266Z,0.82
2022-12-27T09:32:38.598Z,1.02
2022-12-27T09:35:40.718Z,1.25
2022-12-27T09:38:45.804Z,1.00
2022-12-27T09:42:46.618Z,0.77
2022-12-27T09:45:42.904Z,0.80
2022-12-27T09:48:45.667Z,1.20
2022-12-27T09:51:57.697Z,1.42
2022-12-27T09:55:08.190Z,1.23
2022-12-27T09:58:48.433Z,0.70
2022-12-27T10:01:50.676Z,1.10
2022-12-27T10:05:20.212Z,1.17
2022-12-27T10:08:33.007Z,1.10
2022-12-27T10:11:49.166Z,0.80
2022-12-27T10:15:20.039Z,0.75
2022-12-27T10:18:28.607Z,0.75
2022-12-27T10:21:37.505Z,1.10
2022-12-27T10:24:49.660Z,1.02
2022-12-27T10:27:58.719Z,1.00
2022-12-27T10:31:03.648Z,0.77
2022-12-27T10:34:10.516Z,0.93
2022-12-27T10:37:16.249Z,0.77
2022-12-27T10:40:28.663Z,1.42
2022-12-27T10:43:38.907Z,1.42
2022-12-27T10:46:45.041Z,0.93
2022-12-27T10:50:09.679Z,1.30
2022-12-27T10:53:36.004Z,1.38
2022-12-27T10:56:42.800Z,1.63
2022-12-27T10:59:45.361Z,2.28
2022-12-27T11:02:59.185Z,2.65
2022-12-27T11:06:05.906Z,2.60
2022-12-27T11:09:31.281Z,3.50
2022-12-27T11:15:40.744Z,2.72
2022-12-27T11:18:50.740Z,2.42
2022-12-27T11:21:55.576Z,2.60
2022-12-27T11:28:20.886Z,3.15
2022-12-27T11:31:37.181Z,2.88
2022-12-27T11:34:45.177Z,3.30
2022-12-27T11:37:49.462Z,3.28
2022-12-27T11:41:00.833Z,2.97
2022-12-27T11:44:07.142Z,3.00
2022-12-27T11:47:15.141Z,3.10
2022-12-27T11:50:38.578Z,2.85
2022-12-27T11:53:41.511Z,2.90
2022-12-27T11:56:52.995Z,3.25
2022-12-27T12:00:17.021Z,2.97
2022-12-27T12:03:34.242Z,3.28
2022-12-27T12:06:42.862Z,3.17
2022-12-27T12:09:54.779Z,3.55
2022-12-27T12:13:10.744Z,3.20
2022-12-27T12:16:42.145Z,3.10
2022-12-27T12:20:16.348Z,3.30
2022-12-27T12:23:54.478Z,3.35
2022-12-27T12:27:09.202Z,3.03
2022-12-27T12:30:12.061Z,3.10
2022-12-27T12:34:01.923Z,2.47
2022-12-27T12:37:16.458Z,3.00
2022-12-27T12:40:44.288Z,2.78
2022-12-27T12:44:08.320Z,2.85
2022-12-27T12:47:53.733Z,3.03
2022-12-27T12:51:33.936Z,2.50
2022-12-27T12:55:03.140Z,2.65
2022-12-27T12:58:23.433Z,2.95
2022-12-27T13:01:51.180Z,2.97
2022-12-27T13:05:08.931Z,2.30
2022-12-27T13:08:24.268Z,2.70
2022-12-27T13:11:51.556Z,2.50
2022-12-27T13:15:24.135Z,2.40
2022-12-27T13:18:52.194Z,2.70
2022-12-27T13:22:24.701Z,2.78
2022-12-27T13:25:39.962Z,2.17
2022-12-27T13:28:48.608Z,2.83
2022-12-27T13:32:05.985Z,2.40
2022-12-27T13:35:21.082Z,3.03
2022-12-27T13:42:05.781Z,2.15
2022-12-27T13:45:52.653Z,2.25
2022-12-27T13:49:14.932Z,2.08
2022-12-27T13:52:32.324Z,2.13
2022-12-27T13:55:51.253Z,1.83
2022-12-27T13:59:00.001Z,2.83
2022-12-27T14:02:22.297Z,2.35
2022-12-27T14:05:50.134Z,2.05
2022-12-27T14:09:16.837Z,2.25
2022-12-27T14:12:25.419Z,1.70
2022-12-27T14:15:43.517Z,1.98
2022-12-27T14:18:57.918Z,1.88
2022-12-27T14:25:53.639Z,1.50
2022-12-27T14:29:03.338Z,1.88
2022-12-27T14:32:27.575Z,1.38
2022-12-27T14:36:08.261Z,2.00
2022-12-27T14:39:26.179Z,1.80
2022-12-27T14:43:02.622Z,1.77
2022-12-27T14:46:19.828Z,1.70
2022-12-27T14:49:44.277Z,2.15
2022-12-27T14:52:46.885Z,1.42
2022-12-27T14:56:00.183Z,1.60
2022-12-27T14:59:30.371Z,1.60
2022-12-27T15:02:53.312Z,1.65
2022-12-27T15:06:27.959Z,1.08
2022-12-27T15:10:09.661Z,1.45
2022-12-27T15:13:12.360Z,1.23
2022-12-27T15:16:39.913Z,1.92
2022-12-27T15:20:18.819Z,1.60
2022-12-27T15:23:40.300Z,1.30
2022-12-27T15:26:57.994Z,1.60
2022-12-27T15:30:22.796Z,1.48
2022-12-27T15:33:44.202Z,1.40
2022-12-27T15:36:50.667Z,1.27
2022-12-27T15:39:53.443Z,1.60
2022-12-27T15:43:21.894Z,1.80
2022-12-27T15:46:55.573Z,1.38
2022-12-27T15:50:18.963Z,1.40
2022-12-27T15:53:51.026Z,1.38
2022-12-27T15:57:13.420Z,1.17
2022-12-27T16:00:24.871Z,1.42
2022-12-27T16:03:39.529Z,1.38
2022-12-27T16:06:50.737Z,1.20
2022-12-27T16:09:54.067Z,2.17
2022-12-27T16:13:05.478Z,1.63
2022-12-27T16:16:32.738Z,1.58
2022-12-27T16:20:03.204Z,1.63
2022-12-27T16:23:08.596Z,1.45
2022-12-27T16:26:20.005Z,1.30
2022-12-27T16:29:33.221Z,1.30
2022-12-27T16:32:35.972Z,1.27
2022-12-27T16:35:38.643Z,1.90
2022-12-27T16:39:06.195Z,3.33
2022-12-27T16:42:09.374Z,2.45
2022-12-27T16:45:38.186Z,2.17
2022-12-27T16:49:04.732Z,2.72
2022-12-27T16:52:15.029Z,2.30
2022-12-27T16:55:53.658Z,2.08
2022-12-27T16:58:57.180Z,2.78
2022-12-27T17:02:23.122Z,2.45
2022-12-27T17:05:25.952Z,2.45
2022-12-27T17:08:30.936Z,1.70
2022-12-27T17:11:37.399Z,1.52
2022-12-27T17:14:42.088Z,1.65
2022-12-27T17:17:47.087Z,1.33
2022-12-27T17:21:06.905Z,2.13
2022-12-27T17:24:21.119Z,1.95
2022-12-27T17:27:52.752Z,2.05
2022-12-27T17:31:25.125Z,1.73
2022-12-27T17:34:47.905Z,1.90
2022-12-27T17:42:59.950Z,2.05
2022-12-27T17:46:47.799Z,2.15
2022-12-27T17:49:52.306Z,2.10
2022-12-27T17:58:16.100Z,2.50
2022-12-27T18:01:18.474Z,2.78
2022-12-27T18:04:31.982Z,2.22
2022-12-27T18:07:35.548Z,2.97
2022-12-27T18:10:38.021Z,2.50
2022-12-27T18:13:49.900Z,2.80
2022-12-27T18:17:32.073Z,2.97
2022-12-27T18:20:40.761Z,2.20
2022-12-27T18:23:46.362Z,2.70
2022-12-27T18:27:01.401Z,2.63
2022-12-27T18:30:04.132Z,2.70
2022-12-27T18:33:07.535Z,2.40
2022-12-27T18:36:16.110Z,3.08
2022-12-27T18:39:33.229Z,2.60
2022-12-27T18:42:41.558Z,2.40
2022-12-27T18:45:45.995Z,2.80
2022-12-27T18:48:49.379Z,2.60
2022-12-27T18:51:53.365Z,2.63
2022-12-27T18:55:06.867Z,2.55
2022-12-27T18:58:21.192Z,3.05
2022-12-27T19:01:24.438Z,3.47
2022-12-27T19:04:30.928Z,4.15
2022-12-27T19:07:33.918Z,3.05
2022-12-27T19:10:36.688Z,3.70
2022-12-27T19:13:49.747Z,3.83
2022-12-27T19:16:55.540Z,3.83
2022-12-27T19:20:03.438Z,3.22
2022-12-27T19:23:25.315Z,2.83
2022-12-27T19:26:33.486Z,3.58
2022-12-27T19:29:42.528Z,3.22
2022-12-27T19:32:47.866Z,2.90
2022-12-27T19:35:50.251Z,3.10
2022-12-27T19:38:58.132Z,3.22
2022-12-27T19:42:04.383Z,2.90
2022-12-27T19:45:07.468Z,3.35
2022-12-27T19:48:12.419Z,2.75
2022-12-27T19:51:20.663Z,3.17
2022-12-27T19:54:25.301Z,3.50
2022-12-27T19:57:28.598Z,3.30
2022-12-27T20:00:31.085Z,3.58
2022-12-27T20:03:34.385Z,2.88
2022-12-27T20:06:36.820Z,2.78
2022-12-27T20:09:39.452Z,2.65
2022-12-27T20:12:41.929Z,3.15
2022-12-27T20:15:45.123Z,2.90
2022-12-27T20:18:48.500Z,3.00
2022-12-27T20:21:51.277Z,2.50
2022-12-27T20:24:54.067Z,2.58
2022-12-27T20:27:56.961Z,2.70
2022-12-27T20:31:06.429Z,2.35
2022-12-27T20:34:10.581Z,2.65
2022-12-27T20:37:13.326Z,2.47
2022-12-27T20:40:16.287Z,2.70
2022-12-27T20:43:18.743Z,2.45
2022-12-27T20:46:21.780Z,2.78
2022-12-27T20:49:23.838Z,2.30
2022-12-27T20:52:31.023Z,2.88
2022-12-27T20:55:34.745Z,2.40
2022-12-27T20:58:38.878Z,2.08
2022-12-27T21:01:41.653Z,1.80
2022-12-27T21:04:45.625Z,2.20
2022-12-27T21:07:50.448Z,1.98
2022-12-27T21:10:56.276Z,2.47
2022-12-27T21:14:02.077Z,2.30
2022-12-27T21:17:05.761Z,2.00
2022-12-27T21:20:11.581Z,2.00
2022-12-27T21:23:16.215Z,2.17
2022-12-27T21:26:22.471Z,2.00
2022-12-27T21:29:25.462Z,2.00
2022-12-27T21:32:28.551Z,2.05
2022-12-27T21:35:32.170Z,2.20
2022-12-27T21:38:35.658Z,2.30
2022-12-27T21:41:40.977Z,2.35
2022-12-27T21:44:43.198Z,2.03
2022-12-27T21:47:46.207Z,1.83
2022-12-27T21:50:50.924Z,1.70
2022-12-27T21:53:55.735Z,1.42
2022-12-27T21:56:58.285Z,1.77
2022-12-27T22:00:01.246Z,1.67
2022-12-27T22:03:04.388Z,2.03
2022-12-27T22:06:11.724Z,1.90
2022-12-27T22:09:14.038Z,1.60
2022-12-27T22:12:43.915Z,1.70
2022-12-27T22:16:13.485Z,1.40
2022-12-27T22:19:16.932Z,1.60
2022-12-27T22:22:20.650Z,1.83
2022-12-27T22:25:24.505Z,1.60
2022-12-27T22:28:27.360Z,1.63
2022-12-27T22:31:35.879Z,1.70
2022-12-27T22:34:46.285Z,1.30
2022-12-27T22:37:49.950Z,1.60
2022-12-27T22:40:53.052Z,1.70
2022-12-27T22:44:02.632Z,1.60
2022-12-27T22:50:53.044Z,1.30
2022-12-27T22:53:56.797Z,1.35
2022-12-27T22:56:59.737Z,1.55
2022-12-27T23:00:02.561Z,1.30
2022-12-27T23:03:06.184Z,1.70
2022-12-27T23:06:11.291Z,1.35
2022-12-27T23:09:13.760Z,1.45
2022-12-27T23:12:16.049Z,1.20
2022-12-27T23:15:19.786Z,1.52
2022-12-27T23:18:21.804Z,1.70
2022-12-27T23:21:25.303Z,2.08
2022-12-27T23:24:27.850Z,1.23
2022-12-27T23:27:30.443Z,1.23
2022-12-27T23:30:33.430Z,1.10
2022-12-27T23:33:36.873Z,1.70
2022-12-27T23:36:39.107Z,2.30
2022-12-27T23:39:41.593Z,1.20
2022-12-27T23:42:43.975Z,1.17
2022-12-27T23:45:46.594Z,1.10
2022-12-27T23:48:48.950Z,1.85
2022-12-27T23:51:52.801Z,1.15
2022-12-27T23:54:55.031Z,1.15
2022-12-27T23:57:58.072Z,1.63
